Notice: Undefined index: wuKey in /home/meteotorkc/sierranorte/weather28/wsDataGet.php on line 244

Notice: Undefined index: wuKey in /home/meteotorkc/sierranorte/weather28/wuforecast/wualmanac.php on line 27

This is an optional block. Switch it on/off in your settings-file: $SITE['bannerTop'] = false; or $SITE['bannerBottom'] = false;

You can display ads, any other important text or photo’s using text / html or PHP code.

You can place one or more at the top and or bottom and it can all be different for content / size .



Lozoyuela more information Lozoyuela


Meteosat more information blitzortung!


Radar lluvias more information rain snow radar



Informes METAR proximidad


Warning: A non-numeric value encountered in /home/meteotorkc/sierranorte/weather28/metar/wsMetarTxt.php on line 609

Warning: A non-numeric value encountered in /home/meteotorkc/sierranorte/weather28/metar/wsMetarTxt.php on line 609

Warning: A non-numeric value encountered in /home/meteotorkc/sierranorte/weather28/metar/wsMetarTxt.php on line 609

Warning: A non-numeric value encountered in /home/meteotorkc/sierranorte/weather28/metar/wsMetarTxt.php on line 609

Warning: A non-numeric value encountered in /home/meteotorkc/sierranorte/weather28/metar/wsMetarTxt.php on line 609

Warning: A non-numeric value encountered in /home/meteotorkc/sierranorte/weather28/metar/wsMetarTxt.php on line 609

Warning: A non-numeric value encountered in /home/meteotorkc/sierranorte/weather28/metar/wsMetarTxt.php on line 609

Warning: A non-numeric value encountered in /home/meteotorkc/sierranorte/weather28/metar/wsMetarTxt.php on line 609

Warning: A non-numeric value encountered in /home/meteotorkc/sierranorte/weather28/metar/wsMetarTxt.php on line 609

Warning: A non-numeric value encountered in /home/meteotorkc/sierranorte/weather28/metar/wsMetarTxt.php on line 609
   
LEXJ - Santander/Parayas, Spain
Distancia hasta la estación: ESE 6 km
Actualización: 16-07-2018 16:30
Parcialmente Nublado  
Parcialmente Nublado  
   Viento: WNW 20.4 km/h
Viento: WNW 20.4 km/h
Temperatura: 23°C
Punto de rocío: 16°C
Humedad: 65%
Baromètro: 1021 hPa
Nublado: Partly Cloudy
Visibilidad: More than 10 km
detalles de la nube: Parcialmente Nublado 3000 ft
LEXJ 161430Z 29011KT 260V350 9999 SCT030 23/16 Q1021
LEBB - Bilbao/Sondica, Spain
Distancia hasta la estación: ESE 80 km
Actualización: 16-07-2018 16:30
Parcialmente nublado  
Parcialmente nublado  
   Viento: NW 16.7 km/h
Viento: NW 16.7 km/h
Temperatura: 22°C
Punto de rocío: 18°C
Humedad: 78%
Baromètro: 1021 hPa
Nublado: Mostly Cloudy
Visibilidad: More than 10 km
detalles de la nube: Parcialmente Nublado 2400 ft,
Parcialmente nublado 3300 ft
LEBB 161430Z 32009KT 280V350 9999 SCT024 BKN033 22/18 Q1021 TEMPO SHRA SCT030TCU
LEBL - Barcelona Airpor, Spain
Distancia hasta la estación: ESE 554 km
Actualización: 16-07-2018 16:30
Nubes dispersas  
Nubes dispersas  
   Viento: SSE 18.5 km/h
Viento: SSE 18.5 km/h
Temperatura: 27°C
Índice de calor: 28°C
Punto de rocío: 17°C
Humedad: 54%
Baromètro: 1013 hPa
Nublado: Few Clouds
Visibilidad: More than 10 km
detalles de la nube: Nubes dispersas 5500 ft
LEBL 161430Z 16010KT 140V210 9999 FEW055 27/17 Q1013 NOSIG
LEMD - Madrid/Barajas, Spain
Distancia hasta la estación: S 325 km
Actualización: 16-07-2018 16:30
Parcialmente Nublado  
Parcialmente Nublado  
   Viento: SSW 5.6 km/h
Viento: SSW 5.6 km/h
Temperatura: 30°C
Punto de rocío: 8°C
Humedad: 25%
Baromètro: 1019 hPa
Nublado: Partly Cloudy
Visibilidad: More than 10 km
detalles de la nube: Parcialmente Nublado 8000 ft
LEMD 161430Z 20003KT 9999 SCT080 30/08 Q1019 NOSIG
LPPT - Lisbon/Portela, Portugal
Distancia hasta la estación: SW 663 km
Actualización: 16-07-2018 16:30
Nubes dispersas  
Nubes dispersas  
   Viento: NW 18.5 km/h
Viento: NW 18.5 km/h
Temperatura: 26°C
Punto de rocío: 16°C
Humedad: 54%
Baromètro: 1020 hPa
Nublado: Few Clouds
Visibilidad: More than 10 km
detalles de la nube: Nubes dispersas 4000 ft
LPPT 161430Z 32010KT 280V360 9999 FEW040 26/16 Q1020
LECO - La Coruna/Alvedr, Spain
Distancia hasta la estación: W 349 km
Actualización: 16-07-2018 16:30
Parcialmente Nublado  
Parcialmente Nublado  
   Viento: WNW 22.2 km/h
Viento: WNW 22.2 km/h
Temperatura: 22°C
Punto de rocío: 16°C
Humedad: 69%
Baromètro: 1022 hPa
Nublado: Partly Cloudy
Visibilidad: More than 10 km
detalles de la nube: Parcialmente Nublado 3000 ft
LECO 161430Z 30012KT 270V350 9999 SCT030 22/16 Q1022 NOSIG
LEST - Santiago/Labacol, Spain
Distancia hasta la estación: W 358 km
Actualización: 16-07-2018 16:30
Parcialmente Nublado  
Parcialmente Nublado  
   Viento: varía 3.7 km/h
Viento: varía 3.7 km/h
Temperatura: 22°C
Punto de rocío: 15°C
Humedad: 65%
Baromètro: 1022 hPa
Nublado: Partly Cloudy
Visibilidad: More than 10 km
detalles de la nube: Parcialmente Nublado 2800 ft,
Parcialmente Nublado 4000 ft
LEST 161430Z VRB02KT 9999 SCT028 SCT040 22/15 Q1022 NOSIG
EBBR - Brussels International Airport, Belgium
Distancia hasta la estación: W 14 km
Actualización: 16-07-2018 16:20
Despejado  
Despejado  
   Viento: N 5.6 km/h
Viento: N 5.6 km/h
Temperatura: 30°C
Punto de rocío: 8°C
Humedad: 25%
Baromètro: 1012 hPa
Visibilidad: More than 10 km
detalles de la nube: Despejado ft
EBBR 161420Z 01003KT 290V100 CAVOK 30/08 Q1012 NOSIG
EBBE - Beauvechain (Bevekom), Belgium
Distancia hasta la estación: SSE 17 km
Actualización: 16-07-2018 16:25
Parcialmente Nublado  
Parcialmente Nublado  
   Viento: ENE 9.3 km/h
Viento: ENE 9.3 km/h
Temperatura: 29°C
Punto de rocío: 8°C
Humedad: 27%
Baromètro: 1012 hPa
Nublado: Partly Cloudy
Visibilidad: More than 10 km
detalles de la nube: Nubes dispersas 4500 ft,
Parcialmente Nublado 22000 ft
EBBE 161425Z 06005KT 9999 FEW045 SCT220 29/08 Q1012 BLU BLU
EBDT - Schaffen, Belgium
Distancia hasta la estación: ENE 29 km
Actualización: 16-07-2018 16:25
Parcialmente nublado  
Parcialmente nublado  
   Viento: N 9.3 km/h
Viento: N 9.3 km/h
Temperatura: 30°C
Punto de rocío: 7°C
Humedad: 24%
Baromètro: 1012 hPa
Nublado: Mostly Cloudy
Visibilidad: More than 10 km
detalles de la nube: Parcialmente nublado 18000 ft
EBDT 161425Z AUTO 36005KT 9999 BKN180/// 30/07 Q1012 BLU
EBAW - Antwerp/Deurne, Belgium
Distancia hasta la estación: NNW 38 km
Actualización: 16-07-2018 16:20
Despejado  
Despejado  
   Viento: NNE 9.3 km/h
Viento: NNE 9.3 km/h
Temperatura: 29°C
Punto de rocío: 9°C
Humedad: 29%
Baromètro: 1012 hPa
Visibilidad: More than 10 km
detalles de la nube: Despejado ft
EBAW 161420Z 03005KT 340V080 CAVOK 29/09 Q1012 NOSIG
EBCI - Charleroi/Gosselies, Belgium
Distancia hasta la estación: SSW 51 km
Actualización: 16-07-2018 16:20
Nubes dispersas  
Nubes dispersas  
   Viento: varía 7.4 km/h
Viento: varía 7.4 km/h
Temperatura: 29°C
Punto de rocío: 6°C
Humedad: 23%
Baromètro: 1013 hPa
Nublado: Few Clouds
Visibilidad: More than 10 km
detalles de la nube: Nubes dispersas 4500 ft
EBCI 161420Z VRB04KT 9999 FEW045 29/06 Q1013 NOSIG
EBLG - Bierset/Liege, Belgium
Distancia hasta la estación: ESE 60 km
Actualización: 16-07-2018 16:20
Despejado  
Despejado  
   Viento: NE 13 km/h
Viento: NE 13 km/h
Temperatura: 29°C
Punto de rocío: 6°C
Humedad: 23%
Baromètro: 1012 hPa
Visibilidad: More than 10 km
detalles de la nube: Despejado ft
EBLG 161420Z 04007KT 330V070 CAVOK 29/06 Q1012 NOSIG
  

Guión original por  Saratoga-weather.org Adaptado para la plantilla por  Weerstation Leuven

Usted encontrará nuestra información del tiempo también en:

UK Metoffice

Weather Underground

AWEKAS

Equipo utilizado:

Weather-program
Weather Display

Weather-server
My Computer

Proveedor
My provider

Weather Display

My Computer

My provider